Terminal Aerodrome Forecast
Issued by NWS

Home | Current Version | Previous Version | Text Only | Print | Product List | Glossary On
Versions: 1 2 3 4 5 6 7 8 9 10 11 12 13 14 15 16 17 18 19 20 21 22 23 24 25
000
FTUS45 KCYS 302320
TAFRWL
TAF
KRWL 302320Z 0100/0124 04012KT 6SM -SHSN BR OVC010
      TEMPO 0100/0102 2SM -SN BKN008
     FM010200 07009KT P6SM OVC020
     FM011200 06010KT P6SM BKN015
     FM011600 07015KT P6SM BKN035=

USA.gov is the U.S. government's official web portal to all federal, state and local government web resources and services.